Time;durP1;ratioP1;P1;durP2;ratioP2;P2;SDS_P1;SDS_P2;PMS_P1;PMS_P2;Temp;Humidity;BMP_temperature;BMP_pressure;BME280_temperature;BME280_humidity;BME280_pressure;Samples;Min_cycle;Max_cycle;Signal;HPM_P1;HPM_P2
2022/09/18 00:05:23;;;;;;;4.80;2.10;;;;;;;;;;4952543;28;20512;-52
2022/09/18 00:07:57;;;;;;;2.80;1.93;;;;;;;;;;4968809;28;20493;-56
2022/09/18 00:10:45;;;;;;;4.33;2.00;;;;;;;;;;4963085;28;20531;-53
2022/09/18 00:13:52;;;;;;;2.50;1.83;;;;;;;;;;4959168;28;20935;-52
2022/09/18 00:16:23;;;;;;;4.40;2.30;;;;;;;;;;4969412;28;20758;-53
2022/09/18 00:18:59;;;;;;;4.03;1.47;;;;;;;;;;4961153;28;20503;-54
2022/09/18 00:24:29;;;;;;;2.93;2.50;;;;;;;;;;4945953;28;20854;-52
2022/09/18 00:26:56;;;;;;;1.87;1.67;;;;;;;;;;4976818;28;20494;-55
2022/09/18 00:29:25;;;;;;;6.00;1.80;;;;;;;;;;4960826;28;20433;-51
2022/09/18 00:31:52;;;;;;;2.03;1.63;;;;;;;;;;4976242;28;20830;-54
2022/09/18 00:34:30;;;;;;;4.77;1.93;;;;;;;;;;4959536;28;20861;-56
2022/09/18 00:36:59;;;;;;;4.83;2.30;;;;;;;;;;4983911;28;20448;-55
2022/09/18 00:39:25;;;;;;;3.50;2.00;;;;;;;;;;4981231;28;20434;-53
2022/09/18 00:41:51;;;;;;;3.30;1.90;;;;;;;;;;4979188;28;20440;-53
2022/09/18 00:44:47;;;;;;;5.40;1.60;;;;;;;;;;4982493;28;20444;-53
2022/09/18 00:47:16;;;;;;;4.50;1.83;;;;;;;;;;4946701;28;21025;-53
2022/09/18 00:49:52;;;;;;;3.03;1.70;;;;;;;;;;4974997;28;20433;-54
2022/09/18 00:52:18;;;;;;;4.80;2.00;;;;;;;;;;4953569;28;20440;-54
2022/09/18 00:54:47;;;;;;;4.33;1.40;;;;;;;;;;4984528;28;20483;-54
2022/09/18 00:57:20;;;;;;;5.53;2.30;;;;;;;;;;4958665;28;20457;-54
2022/09/18 01:02:32;;;;;;;4.43;2.00;;;;;;;;;;4956703;28;20561;-54
2022/09/18 01:04:59;;;;;;;2.47;1.70;;;;;;;;;;4985099;28;20459;-54
2022/09/18 01:07:43;;;;;;;4.50;1.83;;;;;;;;;;4959194;28;20491;-54
2022/09/18 01:10:38;;;;;;;2.40;1.50;;;;;;;;;;4984763;28;20434;-54
2022/09/18 01:13:22;;;;;;;4.13;1.40;;;;;;;;;;4978618;28;21013;-54
2022/09/18 01:16:10;;;;;;;1.67;1.53;;;;;;;;;;4970178;28;20530;-53
2022/09/18 01:18:43;;;;;;;5.43;2.07;;;;;;;;;;4968747;28;20455;-54
2022/09/18 01:21:41;;;;;;;5.90;2.90;;;;;;;;;;4952731;28;20665;-54
2022/09/18 01:24:32;;;;;;;3.33;1.40;;;;;;;;;;4971322;28;20543;-55
2022/09/18 01:27:09;;;;;;;5.63;1.67;;;;;;;;;;4954296;28;20572;-54
2022/09/18 01:29:36;;;;;;;1.70;1.23;;;;;;;;;;4981165;28;20444;-54
2022/09/18 01:32:20;;;;;;;3.77;1.20;;;;;;;;;;4960997;28;20453;-54
2022/09/18 01:35:03;;;;;;;1.63;1.10;;;;;;;;;;4977270;28;20445;-54
2022/09/18 01:37:30;;;;;;;2.00;1.30;;;;;;;;;;4965481;28;20853;-54
2022/09/18 01:40:04;;;;;;;3.30;1.70;;;;;;;;;;4974811;28;20444;-54
2022/09/18 01:42:33;;;;;;;1.70;1.40;;;;;;;;;;4955748;28;20490;-54
2022/09/18 01:45:01;;;;;;;3.83;1.50;;;;;;;;;;4980569;28;20536;-54
2022/09/18 01:47:27;;;;;;;4.80;1.60;;;;;;;;;;4977316;28;21009;-54
2022/09/18 01:49:54;;;;;;;2.10;1.07;;;;;;;;;;4977643;28;20437;-54
2022/09/18 01:52:27;;;;;;;3.50;1.40;;;;;;;;;;4931349;28;20445;-54
2022/09/18 01:54:55;;;;;;;2.63;1.87;;;;;;;;;;4972509;28;21040;-52
2022/09/18 01:57:44;;;;;;;5.80;1.30;;;;;;;;;;4960145;28;20494;-53
2022/09/18 02:00:13;;;;;;;2.33;1.30;;;;;;;;;;4976738;28;20453;-54
2022/09/18 02:03:03;;;;;;;3.30;1.27;;;;;;;;;;4919882;28;20506;-54
2022/09/18 02:05:29;;;;;;;1.73;1.60;;;;;;;;;;4983152;28;20556;-54
2022/09/18 02:07:58;;;;;;;4.63;1.73;;;;;;;;;;4954194;28;20586;-54
2022/09/18 02:10:25;;;;;;;6.70;1.33;;;;;;;;;;4981291;28;20440;-55
2022/09/18 02:12:51;;;;;;;4.53;1.57;;;;;;;;;;4941622;28;22327;-53
2022/09/18 02:15:23;;;;;;;1.70;1.37;;;;;;;;;;4992959;28;20593;-53
2022/09/18 02:18:12;;;;;;;;;;;;;;;;;;;;;
2022/09/18 02:20:59;;;;;;;2.17;1.43;;;;;;;;;;4973193;28;20446;-55
2022/09/18 02:23:32;;;;;;;3.17;1.60;;;;;;;;;;4938000;28;21022;-55
2022/09/18 02:26:06;;;;;;;1.60;1.50;;;;;;;;;;4987810;28;20499;-53
2022/09/18 02:28:34;;;;;;;3.73;1.37;;;;;;;;;;4974860;28;20829;-54
2022/09/18 02:31:38;;;;;;;3.47;1.30;;;;;;;;;;4963245;28;20483;-54
2022/09/18 02:34:16;;;;;;;7.33;1.63;;;;;;;;;;4950242;28;20492;-53
2022/09/18 02:37:08;;;;;;;1.53;1.30;;;;;;;;;;4972289;28;20997;-53
2022/09/18 02:39:53;;;;;;;1.73;1.63;;;;;;;;;;4972987;28;20445;-54
2022/09/18 02:45:42;;;;;;;2.37;1.40;;;;;;;;;;4983367;28;20976;-55
2022/09/18 02:48:27;;;;;;;5.17;1.50;;;;;;;;;;4979457;28;20488;-55
2022/09/18 02:51:00;;;;;;;1.70;1.30;;;;;;;;;;4982354;28;20982;-55
2022/09/18 02:53:29;;;;;;;2.03;1.40;;;;;;;;;;4941615;28;20469;-55
2022/09/18 02:56:03;;;;;;;2.00;1.60;;;;;;;;;;4984046;28;20520;-55
2022/09/18 02:58:35;;;;;;;5.20;1.63;;;;;;;;;;4974776;28;20449;-54
2022/09/18 03:01:08;;;;;;;1.70;1.20;;;;;;;;;;4977576;28;20441;-55
2022/09/18 03:03:55;;;;;;;2.20;1.27;;;;;;;;;;4950408;28;20491;-55
2022/09/18 03:06:36;;;;;;;2.07;1.30;;;;;;;;;;4974714;28;20437;-54
2022/09/18 03:09:34;;;;;;;1.77;1.20;;;;;;;;;;4957661;28;20448;-54
2022/09/18 03:12:01;;;;;;;4.93;1.77;;;;;;;;;;4972477;28;20449;-57
2022/09/18 03:17:50;;;;;;;1.63;1.20;;;;;;;;;;4963561;28;20789;-55
2022/09/18 03:20:15;;;;;;;2.03;1.43;;;;;;;;;;4971087;28;20509;-53
2022/09/18 03:22:42;;;;;;;2.30;1.33;;;;;;;;;;4974323;28;20536;-54
2022/09/18 03:25:44;;;;;;;1.73;1.60;;;;;;;;;;4995867;28;20457;-52
2022/09/18 03:28:20;;;;;;;2.03;1.10;;;;;;;;;;4970541;28;20485;-53
2022/09/18 03:30:48;;;;;;;1.50;1.40;;;;;;;;;;4961341;28;20997;-54
2022/09/18 03:33:14;;;;;;;2.93;1.20;;;;;;;;;;4980468;28;20461;-55
2022/09/18 03:35:49;;;;;;;1.70;1.30;;;;;;;;;;4959348;28;20467;-55
2022/09/18 03:38:17;;;;;;;2.33;1.50;;;;;;;;;;4978028;28;20488;-55
2022/09/18 03:40:44;;;;;;;4.70;1.70;;;;;;;;;;4974940;28;20476;-55
2022/09/18 03:43:12;;;;;;;3.27;1.70;;;;;;;;;;4964309;28;20796;-55
2022/09/18 03:46:42;;;;;;;2.13;1.13;;;;;;;;;;4944756;28;21274;-52
2022/09/18 03:48:40;;;;;;;1.83;1.50;;;;;;;;;;4964483;28;21072;-58
2022/09/18 03:51:07;;;;;;;1.60;1.27;;;;;;;;;;4958583;28;20498;-55
2022/09/18 03:53:48;;;;;;;1.60;1.50;;;;;;;;;;4988770;28;21145;-52
2022/09/18 03:56:14;;;;;;;2.07;1.20;;;;;;;;;;4941677;28;20464;-52
2022/09/18 03:58:43;;;;;;;5.73;1.10;;;;;;;;;;4968835;28;20491;-52
2022/09/18 04:01:09;;;;;;;4.07;1.83;;;;;;;;;;4957056;28;20442;-52
2022/09/18 04:03:35;;;;;;;3.77;1.37;;;;;;;;;;4980390;28;20438;-52
2022/09/18 04:06:04;;;;;;;1.70;1.10;;;;;;;;;;4969717;28;20448;-53
2022/09/18 04:08:30;;;;;;;2.30;1.50;;;;;;;;;;4978738;28;20495;-55
2022/09/18 04:11:03;;;;;;;2.00;1.23;;;;;;;;;;4944556;28;20691;-52
2022/09/18 04:13:29;;;;;;;2.23;1.30;;;;;;;;;;4976282;28;21156;-53
2022/09/18 04:19:25;;;;;;;2.83;1.33;;;;;;;;;;4954359;28;20492;-52
2022/09/18 04:22:42;;;;;;;3.13;1.43;;;;;;;;;;4921441;28;20449;-55
2022/09/18 04:24:45;;;;;;;1.60;1.07;;;;;;;;;;4975232;28;20832;-55
2022/09/18 04:27:19;;;;;;;2.43;1.43;;;;;;;;;;4927899;28;20534;-59
2022/09/18 04:29:46;;;;;;;3.67;1.30;;;;;;;;;;4982386;28;20690;-54
2022/09/18 04:32:13;;;;;;;4.30;1.60;;;;;;;;;;4956604;28;20460;-53
2022/09/18 04:34:40;;;;;;;2.27;1.63;;;;;;;;;;4966269;28;20420;-53
2022/09/18 04:37:31;;;;;;;1.97;1.63;;;;;;;;;;4966336;28;20640;-56
2022/09/18 04:39:58;;;;;;;3.57;1.50;;;;;;;;;;4980166;28;20452;-55
2022/09/18 04:42:24;;;;;;;5.07;1.70;;;;;;;;;;4957009;28;20464;-54
2022/09/18 04:44:50;;;;;;;2.07;1.77;;;;;;;;;;4974495;28;20476;-54
2022/09/18 04:47:27;;;;;;;4.60;1.37;;;;;;;;;;4972018;28;20518;-55
2022/09/18 04:50:00;;;;;;;2.47;1.97;;;;;;;;;;4949880;28;20448;-55
2022/09/18 04:52:29;;;;;;;2.63;1.50;;;;;;;;;;4975523;28;20440;-55
2022/09/18 04:55:22;;;;;;;;;;;;;;;;;;;;;
2022/09/18 04:57:48;;;;;;;4.37;1.57;;;;;;;;;;4976724;28;20450;-55
2022/09/18 05:00:18;;;;;;;3.73;1.60;;;;;;;;;;4939248;28;20448;-55
2022/09/18 05:02:44;;;;;;;3.40;1.70;;;;;;;;;;4967741;28;20575;-55
2022/09/18 05:05:44;;;;;;;4.00;1.40;;;;;;;;;;4951872;28;22969;-55
2022/09/18 05:08:14;;;;;;;2.70;1.77;;;;;;;;;;4977876;28;20472;-54
2022/09/18 05:13:51;;;;;;;3.93;1.80;;;;;;;;;;4973633;28;20533;-57
2022/09/18 05:16:17;;;;;;;3.50;1.30;;;;;;;;;;4942732;28;20449;-56
2022/09/18 05:19:01;;;;;;;1.70;1.40;;;;;;;;;;4978869;28;20922;-56
2022/09/18 05:21:28;;;;;;;1.83;1.73;;;;;;;;;;4953556;28;20548;-55
2022/09/18 05:23:54;;;;;;;1.97;1.77;;;;;;;;;;4990864;28;20494;-56
2022/09/18 05:26:20;;;;;;;5.33;1.60;;;;;;;;;;4976373;28;20441;-56
2022/09/18 05:28:49;;;;;;;3.63;1.70;;;;;;;;;;4991640;28;20480;-56
2022/09/18 05:31:15;;;;;;;2.40;1.77;;;;;;;;;;4950122;28;20424;-55
2022/09/18 05:33:44;;;;;;;6.53;1.97;;;;;;;;;;4981550;28;20461;-55
2022/09/18 05:36:10;;;;;;;3.97;1.80;;;;;;;;;;4969353;28;20940;-56
2022/09/18 05:38:36;;;;;;;4.97;1.60;;;;;;;;;;4983797;28;20438;-56
2022/09/18 05:41:16;;;;;;;2.33;1.90;;;;;;;;;;4954623;28;20453;-56
2022/09/18 05:43:47;;;;;;;2.60;1.90;;;;;;;;;;4954000;28;21023;-56
2022/09/18 05:46:18;;;;;;;2.50;2.00;;;;;;;;;;4979251;28;20476;-55
2022/09/18 05:49:20;;;;;;;2.10;1.60;;;;;;;;;;4985692;28;20480;-56
2022/09/18 05:51:48;;;;;;;9.83;2.20;;;;;;;;;;4977533;28;20437;-56
2022/09/18 05:54:41;;;;;;;4.53;2.07;;;;;;;;;;4967294;28;20444;-56
2022/09/18 05:57:07;;;;;;;6.23;1.90;;;;;;;;;;4985412;28;20452;-57
2022/09/18 05:59:33;;;;;;;2.20;2.00;;;;;;;;;;4979770;28;20535;-55
2022/09/18 06:01:59;;;;;;;2.07;1.60;;;;;;;;;;4982671;28;20456;-56
2022/09/18 06:04:41;;;;;;;2.53;2.00;;;;;;;;;;4964516;28;20437;-56
2022/09/18 06:07:14;;;;;;;3.93;1.90;;;;;;;;;;4977124;28;20488;-56
2022/09/18 06:09:40;;;;;;;2.57;2.00;;;;;;;;;;4981346;28;21001;-56
2022/09/18 06:12:09;;;;;;;2.00;1.80;;;;;;;;;;4985029;28;20417;-56
2022/09/18 06:14:35;;;;;;;2.00;1.77;;;;;;;;;;4975590;28;20536;-56
2022/09/18 06:17:01;;;;;;;2.63;2.43;;;;;;;;;;4982658;28;20437;-56
2022/09/18 06:19:30;;;;;;;3.17;2.00;;;;;;;;;;4971922;28;20456;-56
2022/09/18 06:21:58;;;;;;;3.23;2.40;;;;;;;;;;5004082;28;20540;-56
2022/09/18 06:27:33;;;;;;;4.23;2.00;;;;;;;;;;4976929;28;21404;-55
2022/09/18 06:29:59;;;;;;;1.90;1.67;;;;;;;;;;4958259;28;20449;-55
2022/09/18 06:32:24;;;;;;;3.40;2.10;;;;;;;;;;4985661;28;20441;-55
2022/09/18 06:34:51;;;;;;;2.50;1.80;;;;;;;;;;4953190;28;20826;-54
2022/09/18 06:37:17;;;;;;;1.70;1.60;;;;;;;;;;4975998;28;20425;-55
2022/09/18 06:39:44;;;;;;;2.33;1.80;;;;;;;;;;4977451;28;20454;-55
2022/09/18 06:42:44;;;;;;;3.30;1.93;;;;;;;;;;4983030;28;20433;-55
2022/09/18 06:45:14;;;;;;;2.17;1.53;;;;;;;;;;4981802;28;21900;-55
2022/09/18 06:47:41;;;;;;;2.10;1.90;;;;;;;;;;4980414;28;20481;-56
2022/09/18 06:50:17;;;;;;;2.63;1.73;;;;;;;;;;4988401;28;21057;-55
2022/09/18 06:52:43;;;;;;;3.23;2.07;;;;;;;;;;4985064;28;20489;-56
2022/09/18 06:55:10;;;;;;;3.63;1.80;;;;;;;;;;4968352;28;20445;-56
2022/09/18 06:57:36;;;;;;;2.67;2.10;;;;;;;;;;4978384;28;20559;-56
2022/09/18 07:00:03;;;;;;;4.53;2.03;;;;;;;;;;4990670;28;20444;-56
2022/09/18 07:02:29;;;;;;;1.73;1.60;;;;;;;;;;4973940;28;20453;-55
2022/09/18 07:04:55;;;;;;;2.50;1.70;;;;;;;;;;4983331;28;20524;-57
2022/09/18 07:07:26;;;;;;;3.57;1.87;;;;;;;;;;4973068;28;20922;-57
2022/09/18 07:09:54;;;;;;;2.50;2.20;;;;;;;;;;4974714;28;20553;-57
2022/09/18 07:12:53;;;;;;;3.00;2.27;;;;;;;;;;4980547;28;20532;-56
2022/09/18 07:15:29;;;;;;;2.53;1.80;;;;;;;;;;4957819;28;20938;-53
2022/09/18 07:18:19;;;;;;;3.30;2.00;;;;;;;;;;4985098;28;20444;-55
2022/09/18 07:20:57;;;;;;;2.70;2.50;;;;;;;;;;4961215;28;20464;-54
2022/09/18 07:23:53;;;;;;;3.10;1.60;;;;;;;;;;4975746;28;20445;-54
2022/09/18 07:26:27;;;;;;;2.80;2.07;;;;;;;;;;4968683;28;20460;-55
2022/09/18 07:28:53;;;;;;;7.27;2.37;;;;;;;;;;4979753;28;20482;-57
2022/09/18 07:31:28;;;;;;;5.30;2.10;;;;;;;;;;4960984;28;20445;-56
2022/09/18 07:33:58;;;;;;;2.70;1.80;;;;;;;;;;4971743;28;20463;-55
2022/09/18 07:36:25;;;;;;;2.63;1.40;;;;;;;;;;4967789;28;20954;-55
2022/09/18 07:38:51;;;;;;;6.43;2.53;;;;;;;;;;4975175;28;20445;-56
2022/09/18 07:41:36;;;;;;;3.27;1.83;;;;;;;;;;4946390;28;20446;-55
2022/09/18 07:44:03;;;;;;;3.07;1.97;;;;;;;;;;4973377;28;20441;-54
2022/09/18 07:46:54;;;;;;;6.93;2.10;;;;;;;;;;4971764;28;20441;-55
2022/09/18 07:49:33;;;;;;;5.07;2.40;;;;;;;;;;4982179;28;20457;-54
2022/09/18 07:52:04;;;;;;;2.43;1.73;;;;;;;;;;4978683;28;20480;-54
2022/09/18 07:54:30;;;;;;;2.57;2.10;;;;;;;;;;4977588;28;20461;-56
2022/09/18 07:57:16;;;;;;;4.70;1.67;;;;;;;;;;4978318;28;20476;-55
2022/09/18 07:59:46;;;;;;;4.77;1.93;;;;;;;;;;4975577;28;20456;-57
2022/09/18 08:02:19;;;;;;;4.63;1.87;;;;;;;;;;4967489;28;20452;-56
2022/09/18 08:04:54;;;;;;;5.73;1.70;;;;;;;;;;4969474;28;20441;-55
2022/09/18 08:07:20;;;;;;;2.93;1.50;;;;;;;;;;4970399;28;20551;-55
2022/09/18 08:09:58;;;;;;;3.50;1.90;;;;;;;;;;4979059;28;20434;-54
2022/09/18 08:12:26;;;;;;;2.03;1.40;;;;;;;;;;4927754;28;20509;-54
2022/09/18 08:14:55;;;;;;;2.03;1.87;;;;;;;;;;4965462;28;20533;-55
2022/09/18 08:17:53;;;;;;;2.23;1.60;;;;;;;;;;4971066;28;20440;-56
2022/09/18 08:20:22;;;;;;;1.93;1.33;;;;;;;;;;4953072;28;20959;-54
2022/09/18 08:22:49;;;;;;;2.73;1.50;;;;;;;;;;4981375;28;20760;-56
2022/09/18 08:25:16;;;;;;;11.30;2.63;;;;;;;;;;4963211;28;20896;-56
2022/09/18 08:27:42;;;;;;;3.40;1.40;;;;;;;;;;4984660;28;20473;-55
2022/09/18 08:30:10;;;;;;;3.60;1.50;;;;;;;;;;4969821;28;20504;-55
2022/09/18 08:32:40;;;;;;;2.63;1.73;;;;;;;;;;4983540;28;21014;-57
2022/09/18 08:35:10;;;;;;;1.77;1.30;;;;;;;;;;4956820;28;20444;-57
2022/09/18 08:37:38;;;;;;;2.07;1.87;;;;;;;;;;4987642;28;20461;-56
2022/09/18 08:40:10;;;;;;;2.53;1.50;;;;;;;;;;4981895;28;20460;-54
2022/09/18 08:42:43;;;;;;;2.10;1.37;;;;;;;;;;4990402;28;20441;-56
2022/09/18 08:45:25;;;;;;;1.97;1.63;;;;;;;;;;4949716;28;20450;-54
2022/09/18 08:48:00;;;;;;;6.20;1.83;;;;;;;;;;4983723;28;20562;-54
2022/09/18 08:50:31;;;;;;;2.47;2.27;;;;;;;;;;4983608;28;20464;-54
2022/09/18 08:56:24;;;;;;;3.30;1.60;;;;;;;;;;4982428;28;20444;-54
2022/09/18 08:58:53;;;;;;;4.47;2.10;;;;;;;;;;4963345;28;20794;-55
2022/09/18 09:01:23;;;;;;;2.07;1.63;;;;;;;;;;4984643;28;20446;-54
2022/09/18 09:04:04;;;;;;;4.80;1.83;;;;;;;;;;4965472;28;22513;-55
2022/09/18 09:06:36;;;;;;;3.57;2.17;;;;;;;;;;4986558;28;20437;-55
2022/09/18 09:09:19;;;;;;;2.17;1.70;;;;;;;;;;4965115;28;21276;-54
2022/09/18 09:11:48;;;;;;;2.30;1.60;;;;;;;;;;4987292;28;20438;-55
2022/09/18 09:14:35;;;;;;;2.60;1.73;;;;;;;;;;4945598;28;20665;-54
2022/09/18 09:17:21;;;;;;;3.63;1.80;;;;;;;;;;4959558;28;20449;-56
2022/09/18 09:19:54;;;;;;;3.53;2.17;;;;;;;;;;4983901;28;21008;-56
2022/09/18 09:22:24;;;;;;;4.43;2.10;;;;;;;;;;4979017;28;20524;-56
2022/09/18 09:25:11;;;;;;;4.10;1.60;;;;;;;;;;4991685;28;20441;-56
2022/09/18 09:27:44;;;;;;;2.20;1.50;;;;;;;;;;4980984;28;20472;-56
2022/09/18 09:30:16;;;;;;;3.40;1.40;;;;;;;;;;4987269;28;20440;-57
2022/09/18 09:32:55;;;;;;;7.17;1.70;;;;;;;;;;4961805;28;20454;-56
2022/09/18 09:35:24;;;;;;;2.63;1.80;;;;;;;;;;4986667;28;20479;-56
2022/09/18 09:37:51;;;;;;;1.40;1.20;;;;;;;;;;4962176;28;20441;-56
2022/09/18 09:43:53;;;;;;;3.67;1.53;;;;;;;;;;4973517;28;20449;-56
2022/09/18 09:46:49;;;;;;;3.17;1.63;;;;;;;;;;4958019;28;20477;-56
2022/09/18 09:49:29;;;;;;;2.43;1.40;;;;;;;;;;4954334;28;21219;-55
2022/09/18 09:52:12;;;;;;;1.80;1.33;;;;;;;;;;4982698;28;20739;-57
2022/09/18 09:54:39;;;;;;;1.60;1.30;;;;;;;;;;4973151;28;21022;-54
2022/09/18 09:57:24;;;;;;;2.53;1.63;;;;;;;;;;4971518;28;20432;-54
2022/09/18 09:59:56;;;;;;;3.57;1.37;;;;;;;;;;4972492;28;20460;-55
2022/09/18 10:02:29;;;;;;;4.63;1.40;;;;;;;;;;4963045;28;20453;-54
2022/09/18 10:05:01;;;;;;;2.70;2.13;;;;;;;;;;4957552;28;20454;-56
2022/09/18 10:07:31;;;;;;;3.63;1.23;;;;;;;;;;4941545;28;20492;-54
2022/09/18 10:10:02;;;;;;;2.60;1.27;;;;;;;;;;4968953;28;20487;-54
2022/09/18 10:12:51;;;;;;;4.13;1.53;;;;;;;;;;4957279;28;20449;-54
2022/09/18 10:15:20;;;;;;;1.60;1.17;;;;;;;;;;4967005;28;20492;-55
2022/09/18 10:17:47;;;;;;;5.10;1.53;;;;;;;;;;4932108;28;20452;-56
2022/09/18 10:20:14;;;;;;;2.73;1.33;;;;;;;;;;4974423;28;20442;-55
2022/09/18 10:22:40;;;;;;;2.07;1.27;;;;;;;;;;4942230;28;20500;-54
2022/09/18 10:25:26;;;;;;;5.90;1.23;;;;;;;;;;4980185;28;21292;-55
2022/09/18 10:28:00;;;;;;;7.63;1.40;;;;;;;;;;4959029;28;20485;-55
2022/09/18 10:30:26;;;;;;;2.57;1.20;;;;;;;;;;4970960;28;20448;-54
2022/09/18 10:32:52;;;;;;;4.13;1.10;;;;;;;;;;4941849;28;23887;-54
2022/09/18 10:35:31;;;;;;;3.23;1.10;;;;;;;;;;4976097;28;20438;-54
2022/09/18 10:37:58;;;;;;;2.33;1.00;;;;;;;;;;4962124;28;20473;-55
2022/09/18 10:40:30;;;;;;;2.13;0.90;;;;;;;;;;4975094;28;20445;-56
2022/09/18 10:42:56;;;;;;;3.50;1.20;;;;;;;;;;4951074;28;20445;-53
2022/09/18 10:45:23;;;;;;;3.90;1.10;;;;;;;;;;4972803;28;20519;-55
2022/09/18 10:48:15;;;;;;;3.50;1.13;;;;;;;;;;4944310;28;20209;-55
2022/09/18 10:54:13;;;;;;;1.30;0.90;;;;;;;;;;4978184;28;20437;-56
2022/09/18 10:56:58;;;;;;;1.83;0.90;;;;;;;;;;4942209;28;20449;-54
2022/09/18 10:59:29;;;;;;;3.13;1.03;;;;;;;;;;4971936;28;20450;-57
2022/09/18 11:02:10;;;;;;;3.10;1.20;;;;;;;;;;4966090;28;20444;-57
2022/09/18 11:04:57;;;;;;;4.10;1.13;;;;;;;;;;4972558;28;20495;-57
2022/09/18 11:07:23;;;;;;;4.13;1.10;;;;;;;;;;4976985;28;20472;-57
2022/09/18 11:09:50;;;;;;;4.53;1.10;;;;;;;;;;4985607;28;20811;-56
2022/09/18 11:12:19;;;;;;;2.40;0.93;;;;;;;;;;4973089;28;20507;-57
2022/09/18 11:14:46;;;;;;;2.73;1.00;;;;;;;;;;4974055;28;20472;-57
2022/09/18 11:17:42;;;;;;;4.40;1.40;;;;;;;;;;4953632;28;20444;-56
2022/09/18 11:20:17;;;;;;;2.87;1.20;;;;;;;;;;4972766;28;20451;-56
2022/09/18 11:22:43;;;;;;;1.43;1.00;;;;;;;;;;4952789;28;20501;-54
2022/09/18 11:25:28;;;;;;;4.20;0.93;;;;;;;;;;4981782;28;20958;-55
2022/09/18 11:27:55;;;;;;;3.63;0.90;;;;;;;;;;4939949;28;20508;-54
2022/09/18 11:30:27;;;;;;;1.77;0.90;;;;;;;;;;4972289;28;20556;-54
2022/09/18 11:32:59;;;;;;;2.77;1.10;;;;;;;;;;4959946;28;20453;-56
2022/09/18 11:35:29;;;;;;;2.77;1.30;;;;;;;;;;4975608;28;20475;-54
2022/09/18 11:37:57;;;;;;;2.33;1.13;;;;;;;;;;4958797;28;20460;-57
2022/09/18 11:40:25;;;;;;;2.47;0.97;;;;;;;;;;4972248;28;20473;-56
2022/09/18 11:42:52;;;;;;;2.60;0.90;;;;;;;;;;4943634;28;21847;-56
2022/09/18 11:45:36;;;;;;;2.27;0.83;;;;;;;;;;4968453;28;20434;-55
2022/09/18 11:48:05;;;;;;;2.37;0.90;;;;;;;;;;4956755;28;20472;-54
2022/09/18 11:50:32;;;;;;;5.10;0.83;;;;;;;;;;4962316;28;20436;-54
2022/09/18 11:53:04;;;;;;;4.30;0.97;;;;;;;;;;4956075;28;21076;-55
2022/09/18 11:55:35;;;;;;;6.60;1.57;;;;;;;;;;4968844;28;20465;-55
2022/09/18 11:58:21;;;;;;;2.63;1.10;;;;;;;;;;4946279;28;20504;-55
2022/09/18 12:01:17;;;;;;;2.40;1.97;;;;;;;;;;4966111;28;20473;-56
2022/09/18 12:04:15;;;;;;;1.60;1.00;;;;;;;;;;4947130;28;20503;-57
2022/09/18 12:07:16;;;;;;;1.60;0.80;;;;;;;;;;4976267;28;20455;-58
2022/09/18 12:10:05;;;;;;;2.87;1.10;;;;;;;;;;4962171;28;20457;-53
2022/09/18 12:12:52;;;;;;;3.00;0.90;;;;;;;;;;4950300;28;20437;-56
2022/09/18 12:15:21;;;;;;;4.40;1.00;;;;;;;;;;4971482;28;20970;-54
2022/09/18 12:18:04;;;;;;;2.60;0.93;;;;;;;;;;4943672;28;20894;-54
2022/09/18 12:20:37;;;;;;;1.63;0.77;;;;;;;;;;4966299;28;20441;-56
2022/09/18 12:23:03;;;;;;;1.83;0.80;;;;;;;;;;4942274;28;20434;-55
2022/09/18 12:25:38;;;;;;;1.90;0.90;;;;;;;;;;4970323;28;21015;-54
2022/09/18 12:28:07;;;;;;;2.70;1.10;;;;;;;;;;4940607;28;20488;-53
2022/09/18 12:30:44;;;;;;;6.80;1.50;;;;;;;;;;4972540;28;20428;-54
2022/09/18 12:33:20;;;;;;;1.77;0.70;;;;;;;;;;4960190;28;20484;-53
2022/09/18 12:36:05;;;;;;;2.57;1.00;;;;;;;;;;4971280;28;20449;-53
2022/09/18 12:38:42;;;;;;;1.67;0.87;;;;;;;;;;4975468;28;20437;-53
2022/09/18 12:41:17;;;;;;;2.30;1.13;;;;;;;;;;4970098;28;20421;-53
2022/09/18 12:44:09;;;;;;;3.20;1.10;;;;;;;;;;4950412;28;20444;-55
2022/09/18 12:47:08;;;;;;;3.43;0.80;;;;;;;;;;4980032;28;20437;-54
2022/09/18 12:50:02;;;;;;;1.33;0.70;;;;;;;;;;4983489;28;20451;-55
2022/09/18 12:52:46;;;;;;;1.37;0.87;;;;;;;;;;4953298;28;20459;-55
2022/09/18 12:55:32;;;;;;;2.03;1.03;;;;;;;;;;4977898;28;20443;-55
2022/09/18 12:58:10;;;;;;;2.93;1.13;;;;;;;;;;4937960;28;20862;-55
2022/09/18 13:00:38;;;;;;;4.30;0.80;;;;;;;;;;4981763;28;20448;-55
2022/09/18 13:03:09;;;;;;;2.63;0.80;;;;;;;;;;4965723;28;20499;-57
2022/09/18 13:05:42;;;;;;;1.60;0.80;;;;;;;;;;4989789;28;20448;-55
2022/09/18 13:08:28;;;;;;;1.57;0.80;;;;;;;;;;4978190;28;21045;-57
2022/09/18 13:10:55;;;;;;;1.70;0.80;;;;;;;;;;4973116;28;20498;-56
2022/09/18 13:13:27;;;;;;;1.77;1.00;;;;;;;;;;4968775;28;20788;-55
2022/09/18 13:15:54;;;;;;;1.43;0.67;;;;;;;;;;4968717;28;20452;-55
2022/09/18 13:18:27;;;;;;;4.13;1.40;;;;;;;;;;4944912;28;20480;-54
2022/09/18 13:20:56;;;;;;;4.17;0.70;;;;;;;;;;4971723;28;20503;-54
2022/09/18 13:23:23;;;;;;;2.93;0.70;;;;;;;;;;4947938;28;20464;-55
2022/09/18 13:25:50;;;;;;;2.30;1.30;;;;;;;;;;4977020;28;20505;-55
2022/09/18 13:28:17;;;;;;;3.30;1.17;;;;;;;;;;4969867;28;20488;-54
2022/09/18 13:30:42;;;;;;;2.60;0.80;;;;;;;;;;5000315;28;20437;-57
2022/09/18 13:33:20;;;;;;;1.70;1.00;;;;;;;;;;4944557;28;20539;-57
2022/09/18 13:35:48;;;;;;;2.20;1.13;;;;;;;;;;4988627;28;20589;-56
2022/09/18 13:38:16;;;;;;;1.30;0.70;;;;;;;;;;4980047;28;20981;-56
2022/09/18 13:40:43;;;;;;;2.07;0.90;;;;;;;;;;4972854;28;20757;-56
2022/09/18 13:43:35;;;;;;;4.50;2.90;;;;;;;;;;4960223;28;20474;-56
2022/09/18 13:46:01;;;;;;;2.00;1.13;;;;;;;;;;4976178;28;20471;-56
2022/09/18 13:48:40;;;;;;;2.13;0.87;;;;;;;;;;4967645;28;20471;-57
2022/09/18 13:51:07;;;;;;;2.07;1.00;;;;;;;;;;4967090;28;20445;-54
2022/09/18 13:53:37;;;;;;;1.33;0.80;;;;;;;;;;4948423;28;20508;-54
2022/09/18 13:56:04;;;;;;;4.10;1.00;;;;;;;;;;4970232;28;20429;-54
2022/09/18 13:58:30;;;;;;;1.60;0.90;;;;;;;;;;4946966;28;20449;-51
2022/09/18 14:01:00;;;;;;;1.70;1.00;;;;;;;;;;4963687;28;20978;-53
2022/09/18 14:03:26;;;;;;;2.27;1.20;;;;;;;;;;4954036;28;20433;-53
2022/09/18 14:06:06;;;;;;;2.73;1.00;;;;;;;;;;4968447;28;20453;-59
2022/09/18 14:08:35;;;;;;;2.53;1.13;;;;;;;;;;4954113;28;20736;-60
2022/09/18 14:11:05;;;;;;;3.43;1.03;;;;;;;;;;4986916;28;20441;-54
2022/09/18 14:13:35;;;;;;;2.70;0.70;;;;;;;;;;4976253;28;20433;-53
2022/09/18 14:16:02;;;;;;;1.60;0.97;;;;;;;;;;4968119;28;20452;-53
2022/09/18 14:18:29;;;;;;;1.53;0.90;;;;;;;;;;4950419;28;20447;-53
2022/09/18 14:20:57;;;;;;;5.80;0.97;;;;;;;;;;4972119;28;20441;-54
2022/09/18 14:23:35;;;;;;;3.57;1.33;;;;;;;;;;4956845;28;20448;-53
2022/09/18 14:26:08;;;;;;;3.13;1.13;;;;;;;;;;4983504;28;20433;-53
2022/09/18 14:28:34;;;;;;;2.70;0.93;;;;;;;;;;4925235;28;20481;-54
2022/09/18 14:31:19;;;;;;;1.80;0.93;;;;;;;;;;4974873;28;20730;-53
2022/09/18 14:33:45;;;;;;;1.90;0.90;;;;;;;;;;4941617;28;20811;-54
2022/09/18 14:36:11;;;;;;;2.33;0.93;;;;;;;;;;4969107;28;20437;-53
2022/09/18 14:38:38;;;;;;;1.73;0.93;;;;;;;;;;4958080;28;20879;-55
2022/09/18 14:41:14;;;;;;;3.13;1.40;;;;;;;;;;4976566;28;20440;-54
2022/09/18 14:43:47;;;;;;;2.33;1.03;;;;;;;;;;4948291;28;21608;-53
2022/09/18 14:46:21;;;;;;;1.97;1.03;;;;;;;;;;4976122;28;20445;-55
2022/09/18 14:48:47;;;;;;;2.00;0.90;;;;;;;;;;4965838;28;21850;-55
2022/09/18 14:51:21;;;;;;;4.70;1.20;;;;;;;;;;4974584;28;20444;-58
2022/09/18 14:53:51;;;;;;;1.80;0.83;;;;;;;;;;4961610;28;20437;-55
2022/09/18 14:56:34;;;;;;;2.33;0.83;;;;;;;;;;4960118;28;20437;-53
2022/09/18 14:59:04;;;;;;;2.13;1.17;;;;;;;;;;4969537;28;20496;-55
2022/09/18 15:02:03;;;;;;;2.97;0.90;;;;;;;;;;4980406;28;20433;-56
2022/09/18 15:04:35;;;;;;;3.03;1.10;;;;;;;;;;4975364;28;20440;-55
2022/09/18 15:07:01;;;;;;;1.63;1.10;;;;;;;;;;4947112;28;20514;-57
2022/09/18 15:09:31;;;;;;;2.07;0.90;;;;;;;;;;4969796;28;20514;-55
2022/09/18 15:11:57;;;;;;;1.33;0.80;;;;;;;;;;4942931;28;20528;-56
2022/09/18 15:14:35;;;;;;;2.77;1.17;;;;;;;;;;4947155;28;21631;-56
2022/09/18 15:17:03;;;;;;;1.60;1.00;;;;;;;;;;4969548;28;20576;-54
2022/09/18 15:19:29;;;;;;;2.10;0.90;;;;;;;;;;4962732;28;20442;-55
2022/09/18 15:21:56;;;;;;;2.33;1.00;;;;;;;;;;4970452;28;20453;-53
2022/09/18 15:24:22;;;;;;;4.93;0.80;;;;;;;;;;4946102;28;21292;-53
2022/09/18 15:27:03;;;;;;;1.17;0.70;;;;;;;;;;4951616;28;20472;-54
2022/09/18 15:29:42;;;;;;;2.23;1.00;;;;;;;;;;4931399;28;20806;-54
2022/09/18 15:32:09;;;;;;;2.53;1.00;;;;;;;;;;4963803;28;20440;-54
2022/09/18 15:34:42;;;;;;;3.50;1.13;;;;;;;;;;4938066;28;20456;-53
2022/09/18 15:37:12;;;;;;;1.60;0.80;;;;;;;;;;4963867;28;20535;-54
2022/09/18 15:39:45;;;;;;;2.80;1.23;;;;;;;;;;4953379;28;20952;-55
2022/09/18 15:42:23;;;;;;;1.37;0.90;;;;;;;;;;4962422;28;20450;-53
2022/09/18 15:44:50;;;;;;;1.93;1.10;;;;;;;;;;4930297;28;20452;-54
2022/09/18 15:47:31;;;;;;;1.90;0.90;;;;;;;;;;4968845;28;20470;-55
2022/09/18 15:49:58;;;;;;;5.10;1.40;;;;;;;;;;4965157;28;20491;-53
2022/09/18 15:52:37;;;;;;;2.30;1.17;;;;;;;;;;4962902;28;20444;-55
2022/09/18 15:55:09;;;;;;;3.13;1.00;;;;;;;;;;4964847;28;20437;-54
2022/09/18 15:57:40;;;;;;;1.40;0.80;;;;;;;;;;4962405;28;20440;-56
2022/09/18 16:00:10;;;;;;;1.37;0.90;;;;;;;;;;4925415;28;20452;-56
2022/09/18 16:02:37;;;;;;;1.57;0.90;;;;;;;;;;4963316;28;20445;-56